createdAt,value
2019-06-07T00:00:51.625Z,85.98
2019-06-07T00:03:27.612Z,85.89
2019-06-07T00:05:52.152Z,85.92
2019-06-07T00:08:28.054Z,85.83
2019-06-07T00:10:52.711Z,86.19
2019-06-07T00:13:22.058Z,86.56
2019-06-07T00:15:51.483Z,86.71
2019-06-07T00:18:25.703Z,86.48
2019-06-07T00:20:51.946Z,86.15
2019-06-07T00:23:22.934Z,85.74
2019-06-07T00:25:52.497Z,85.79
2019-06-07T00:28:21.903Z,85.37
2019-06-07T00:30:52.669Z,85.82
2019-06-07T00:33:24.843Z,85.98
2019-06-07T00:35:53.355Z,86.07
2019-06-07T00:38:22.831Z,85.05
2019-06-07T00:40:52.182Z,85.96
2019-06-07T00:43:27.944Z,85.97
2019-06-07T00:45:52.678Z,86.22
2019-06-07T00:48:30.823Z,86.68
2019-06-07T00:50:53.158Z,86.42
2019-06-07T00:53:31.664Z,86.46
2019-06-07T00:55:53.641Z,86.23
2019-06-07T00:58:27.523Z,86.32
2019-06-07T01:00:54.162Z,86.32
2019-06-07T01:03:25.671Z,86.37
2019-06-07T01:05:54.556Z,86.75
2019-06-07T01:08:28.266Z,86.87
2019-06-07T01:10:55.086Z,86.87
2019-06-07T01:13:26.757Z,86.72
2019-06-07T01:15:55.741Z,86.35
2019-06-07T01:18:37.329Z,86.96
2019-06-07T01:20:56.192Z,87.71
2019-06-07T01:23:59.870Z,87.51
2019-06-07T01:25:56.815Z,87.47
2019-06-07T01:28:27.100Z,87.24
2019-06-07T01:30:57.355Z,86.63
2019-06-07T01:33:49.309Z,87.10
2019-06-07T01:35:57.868Z,87.03
2019-06-07T01:38:29.809Z,86.78
2019-06-07T01:40:58.353Z,86.97
2019-06-07T01:43:29.128Z,87.23
2019-06-07T01:45:58.811Z,87.43
2019-06-07T01:48:48.178Z,87.38
2019-06-07T01:50:59.221Z,87.51
2019-06-07T01:53:31.385Z,87.19
2019-06-07T01:55:59.720Z,87.11
2019-06-07T01:58:29.282Z,87.11
2019-06-07T02:00:58.643Z,87.16
2019-06-07T02:03:32.166Z,87.18
2019-06-07T02:05:59.254Z,86.70
2019-06-07T02:08:34.092Z,87.17
2019-06-07T02:10:59.755Z,87.17
2019-06-07T02:13:30.735Z,87.28
2019-06-07T02:16:00.313Z,87.66
2019-06-07T02:18:34.373Z,87.57
2019-06-07T02:21:00.771Z,87.85
2019-06-07T02:23:31.660Z,88.74
2019-06-07T02:26:01.299Z,88.87
2019-06-07T02:28:44.384Z,88.11
2019-06-07T02:31:01.802Z,87.75
2019-06-07T02:33:39.616Z,88.17
2019-06-07T02:36:02.266Z,88.45
2019-06-07T02:38:37.163Z,88.41
2019-06-07T02:41:02.879Z,88.26
2019-06-07T02:43:36.237Z,87.87
2019-06-07T02:46:24.052Z,87.97
2019-06-07T02:48:39.851Z,88.25
2019-06-07T02:51:05.633Z,88.30
2019-06-07T02:53:40.070Z,88.51
2019-06-07T02:56:37.249Z,88.30
2019-06-07T02:58:41.550Z,88.65
2019-06-07T03:01:09.919Z,88.32
2019-06-07T03:03:40.209Z,88.33
2019-06-07T03:06:11.225Z,87.89
2019-06-07T03:08:42.865Z,87.68
2019-06-07T03:11:14.127Z,87.56
2019-06-07T03:13:46.728Z,86.98
2019-06-07T03:16:24.480Z,86.48
2019-06-07T03:18:57.553Z,86.31
2019-06-07T03:21:29.469Z,86.46
2019-06-07T03:23:59.874Z,86.40
2019-06-07T03:26:31.318Z,86.40
2019-06-07T03:29:00.894Z,85.93
2019-06-07T03:31:35.324Z,84.89
2019-06-07T03:34:01.413Z,81.47
2019-06-07T03:36:32.136Z,74.29
2019-06-07T03:39:01.715Z,74.29
2019-06-07T03:41:36.795Z,72.14
2019-06-07T03:44:02.168Z,70.45
2019-06-07T03:46:36.223Z,69.70
2019-06-07T03:49:02.957Z,66.08
2019-06-07T03:51:34.875Z,65.50
2019-06-07T03:54:03.511Z,65.47
2019-06-07T03:56:33.754Z,65.10
2019-06-07T03:59:04.125Z,65.29
2019-06-07T04:01:34.831Z,65.29
2019-06-07T04:04:04.638Z,64.09
2019-06-07T04:06:36.181Z,64.52
2019-06-07T04:09:06.746Z,64.53
2019-06-07T04:11:39.429Z,65.29
2019-06-07T04:14:07.284Z,65.11
2019-06-07T04:16:40.852Z,68.29
2019-06-07T04:19:07.795Z,68.29
2019-06-07T04:21:41.998Z,69.44
2019-06-07T04:24:08.276Z,72.09
2019-06-07T04:26:43.272Z,70.88
2019-06-07T04:29:32.299Z,70.88
2019-06-07T04:31:42.920Z,71.18
2019-06-07T04:34:11.056Z,68.60
2019-06-07T04:36:55.808Z,69.96
2019-06-07T04:39:12.526Z,69.96
2019-06-07T04:41:43.810Z,68.91
2019-06-07T04:44:15.019Z,68.70
2019-06-07T04:46:47.264Z,69.46
2019-06-07T04:49:41.143Z,69.46
2019-06-07T04:52:08.438Z,69.05
2019-06-07T04:54:40.626Z,69.05
2019-06-07T04:57:08.939Z,68.17
2019-06-07T05:02:09.429Z,68.62
2019-06-07T05:04:41.631Z,68.66
2019-06-07T05:07:10.065Z,69.21
2019-06-07T05:09:42.936Z,69.21
2019-06-07T05:12:10.324Z,68.39
2019-06-07T05:14:42.395Z,68.39
2019-06-07T05:17:10.893Z,67.14
2019-06-07T05:19:44.131Z,67.14
2019-06-07T05:22:11.407Z,69.31
2019-06-07T05:24:41.577Z,69.31
2019-06-07T05:27:11.945Z,65.41
2019-06-07T05:29:43.839Z,65.41
2019-06-07T05:32:13.083Z,64.27
2019-06-07T05:34:46.967Z,64.82
2019-06-07T05:37:13.506Z,63.70
2019-06-07T05:39:46.295Z,63.70
2019-06-07T05:42:13.737Z,62.54
2019-06-07T05:44:45.476Z,62.11
2019-06-07T05:47:13.862Z,63.27
2019-06-07T05:49:46.387Z,62.85
2019-06-07T05:52:13.826Z,62.48
2019-06-07T05:54:45.511Z,62.49
2019-06-07T05:57:14.317Z,61.22
2019-06-07T05:59:46.753Z,61.04
2019-06-07T06:02:22.801Z,59.80
2019-06-07T06:04:49.003Z,58.64
2019-06-07T06:07:16.475Z,58.64
2019-06-07T06:09:46.163Z,59.06
2019-06-07T06:12:33.542Z,57.23
2019-06-07T06:14:47.176Z,57.85
2019-06-07T06:17:16.418Z,55.79
2019-06-07T06:19:49.644Z,57.50
2019-06-07T06:22:16.331Z,56.07
2019-06-07T06:25:24.332Z,55.76
2019-06-07T06:27:55.638Z,56.28
2019-06-07T06:29:50.448Z,56.01
2019-06-07T06:34:50.669Z,54.58
2019-06-07T06:37:19.576Z,54.71
2019-06-07T06:39:50.116Z,54.47
2019-06-07T06:42:19.530Z,55.08
2019-06-07T06:44:52.274Z,54.24
2019-06-07T06:47:19.601Z,55.90
2019-06-07T06:49:50.145Z,54.61
2019-06-07T06:52:19.626Z,54.40
2019-06-07T06:54:59.349Z,56.60
2019-06-07T06:57:20.487Z,56.21
2019-06-07T06:59:52.525Z,55.53
2019-06-07T07:02:20.574Z,55.17
2019-06-07T07:04:53.528Z,54.03
2019-06-07T07:07:20.745Z,55.63
2019-06-07T07:09:54.741Z,53.46
2019-06-07T07:12:20.956Z,52.57
2019-06-07T07:14:55.148Z,53.31
2019-06-07T07:17:44.729Z,51.78
2019-06-07T07:19:53.073Z,50.45
2019-06-07T07:22:22.403Z,48.93
2019-06-07T07:24:53.396Z,49.05
2019-06-07T07:27:22.279Z,49.98
2019-06-07T07:30:10.291Z,49.03
2019-06-07T07:32:22.220Z,47.89
2019-06-07T07:34:54.505Z,46.90
2019-06-07T07:37:22.134Z,46.84
2019-06-07T07:40:00.708Z,47.01
2019-06-07T07:42:22.134Z,47.44
2019-06-07T07:44:53.727Z,47.41
2019-06-07T07:47:22.149Z,47.93
2019-06-07T07:49:53.041Z,46.36
2019-06-07T07:52:22.085Z,46.97
2019-06-07T07:54:52.853Z,46.58
2019-06-07T07:57:22.000Z,47.21
2019-06-07T08:00:08.309Z,45.93
2019-06-07T08:02:21.845Z,44.72
2019-06-07T08:05:16.555Z,45.02
2019-06-07T08:07:21.669Z,46.03
2019-06-07T08:09:55.669Z,46.27
2019-06-07T08:12:21.541Z,44.33
2019-06-07T08:14:53.533Z,45.67
2019-06-07T08:17:21.489Z,44.62
2019-06-07T08:19:52.268Z,43.59
2019-06-07T08:22:21.383Z,42.88
2019-06-07T08:24:53.172Z,43.03
2019-06-07T08:27:26.236Z,44.61
2019-06-07T08:30:10.221Z,42.70
2019-06-07T08:32:24.403Z,43.02
2019-06-07T08:34:59.751Z,42.80
2019-06-07T08:38:13.364Z,42.42
2019-06-07T08:39:56.752Z,43.53
2019-06-07T08:42:36.909Z,41.48
2019-06-07T08:45:02.963Z,40.50
2019-06-07T08:47:27.410Z,40.64
2019-06-07T08:50:01.483Z,40.64
2019-06-07T08:52:27.314Z,42.55
2019-06-07T08:54:57.846Z,38.96
2019-06-07T08:57:27.159Z,39.23
2019-06-07T08:59:59.872Z,40.91
2019-06-07T09:02:27.030Z,38.89
2019-06-07T09:04:59.274Z,37.84
2019-06-07T09:07:26.923Z,39.32
2019-06-07T09:10:03.584Z,39.58
2019-06-07T09:12:26.830Z,41.61
2019-06-07T09:15:06.233Z,40.28
2019-06-07T09:17:26.689Z,39.36
2019-06-07T09:19:58.202Z,39.57
2019-06-07T09:22:26.516Z,40.62
2019-06-07T09:25:02.829Z,40.26
2019-06-07T09:27:27.459Z,37.39
2019-06-07T09:30:03.200Z,36.42
2019-06-07T09:32:27.968Z,36.92
2019-06-07T09:35:03.911Z,36.69
2019-06-07T09:40:09.735Z,36.25
2019-06-07T09:42:29.494Z,36.24
2019-06-07T09:45:01.192Z,39.36
2019-06-07T09:47:32.847Z,38.07
2019-06-07T09:50:08.343Z,37.14
2019-06-07T09:52:31.417Z,40.26
2019-06-07T09:55:12.042Z,41.91
2019-06-07T09:57:31.248Z,39.78
2019-06-07T10:00:04.023Z,39.47
2019-06-07T10:02:31.118Z,39.49
2019-06-07T10:05:02.560Z,40.53
2019-06-07T10:07:32.141Z,37.42
2019-06-07T10:12:32.118Z,37.94
2019-06-07T10:15:01.202Z,41.98
2019-06-07T10:17:30.307Z,36.76
2019-06-07T10:20:00.474Z,37.15
2019-06-07T10:22:30.159Z,37.43
2019-06-07T10:24:59.699Z,37.35
2019-06-07T10:27:28.973Z,36.54
2019-06-07T10:29:58.021Z,38.99
2019-06-07T10:32:27.076Z,38.18
2019-06-07T10:34:56.169Z,35.62
2019-06-07T10:37:25.289Z,38.88
2019-06-07T10:39:54.349Z,35.31
2019-06-07T10:42:23.407Z,38.26
2019-06-07T10:44:52.457Z,35.72
2019-06-07T10:47:21.542Z,33.57
2019-06-07T10:49:50.595Z,36.35
2019-06-07T10:52:19.640Z,36.97
2019-06-07T10:54:48.801Z,34.22
2019-06-07T10:57:17.855Z,33.07
2019-06-07T10:59:46.899Z,34.97
2019-06-07T11:02:16.005Z,34.07
2019-06-07T11:04:45.122Z,33.86
2019-06-07T11:07:14.522Z,33.79
2019-06-07T11:09:43.728Z,33.45
2019-06-07T11:12:12.842Z,34.62
2019-06-07T11:14:41.870Z,31.59
2019-06-07T11:17:11.306Z,32.47
2019-06-07T11:19:40.452Z,32.45
2019-06-07T11:22:10.209Z,30.83
2019-06-07T11:24:39.330Z,33.97
2019-06-07T11:27:09.645Z,32.82
2019-06-07T11:29:39.189Z,34.50
2019-06-07T11:32:08.454Z,31.12
2019-06-07T11:34:37.484Z,32.74
2019-06-07T11:37:07.355Z,31.86
2019-06-07T11:39:37.400Z,31.57
2019-06-07T11:42:07.898Z,31.82
2019-06-07T11:44:37.117Z,32.85
2019-06-07T11:47:06.495Z,32.75
2019-06-07T11:49:35.616Z,31.03
2019-06-07T11:52:04.664Z,30.77
2019-06-07T11:54:33.733Z,29.99
2019-06-07T11:57:02.916Z,30.85
2019-06-07T11:59:31.971Z,32.47
2019-06-07T12:02:01.017Z,29.13
2019-06-07T12:04:34.898Z,29.63
2019-06-07T12:07:00.973Z,30.44
2019-06-07T12:09:30.002Z,29.71
2019-06-07T12:11:59.056Z,29.72
2019-06-07T12:14:28.116Z,30.81
2019-06-07T12:16:57.163Z,29.36
2019-06-07T12:19:26.233Z,29.49
2019-06-07T12:21:55.350Z,29.85
2019-06-07T12:24:24.422Z,27.84
2019-06-07T12:26:53.483Z,28.19
2019-06-07T12:29:22.538Z,29.19
2019-06-07T12:31:51.605Z,30.17
2019-06-07T12:34:21.669Z,29.68
2019-06-07T12:36:50.967Z,31.19
2019-06-07T12:39:20.163Z,30.29
2019-06-07T12:41:49.242Z,30.36
2019-06-07T12:44:18.660Z,28.05
2019-06-07T12:46:47.735Z,25.92
2019-06-07T12:49:17.086Z,29.96
2019-06-07T12:51:46.114Z,28.89
2019-06-07T12:54:15.457Z,25.49
2019-06-07T12:56:44.716Z,25.98
2019-06-07T12:59:13.959Z,29.70
2019-06-07T13:01:43.061Z,28.84
2019-06-07T13:04:12.255Z,29.08
2019-06-07T13:06:41.425Z,31.57
2019-06-07T13:09:10.472Z,26.95
2019-06-07T13:11:39.564Z,25.51
2019-06-07T13:14:08.606Z,27.70
2019-06-07T13:16:37.696Z,26.24
2019-06-07T13:19:06.748Z,25.46
2019-06-07T13:21:35.781Z,27.29
2019-06-07T13:24:05.015Z,28.63
2019-06-07T13:26:34.061Z,27.00
2019-06-07T13:29:03.148Z,27.84
2019-06-07T13:31:32.223Z,29.79
2019-06-07T13:34:01.292Z,28.68
2019-06-07T13:36:30.307Z,28.56
2019-06-07T13:38:59.386Z,28.48
2019-06-07T13:41:40.559Z,29.36
2019-06-07T13:43:59.219Z,29.08
2019-06-07T13:46:28.316Z,29.02
2019-06-07T13:48:57.366Z,29.53
2019-06-07T13:51:27.027Z,30.31
2019-06-07T13:53:57.193Z,30.08
2019-06-07T13:56:26.328Z,30.42
2019-06-07T13:58:55.465Z,28.99
2019-06-07T14:01:24.695Z,29.33
2019-06-07T14:03:53.719Z,28.26
2019-06-07T14:06:23.506Z,29.45
2019-06-07T14:08:52.642Z,29.79
2019-06-07T14:11:21.683Z,30.06
2019-06-07T14:13:50.772Z,28.43
2019-06-07T14:16:20.087Z,29.22
2019-06-07T14:18:49.142Z,28.83
2019-06-07T14:21:18.274Z,28.31
2019-06-07T14:23:49.275Z,27.34
2019-06-07T14:26:18.115Z,30.30
2019-06-07T14:28:47.173Z,29.81
2019-06-07T14:31:16.220Z,30.33
2019-06-07T14:33:45.412Z,30.26
2019-06-07T14:36:14.482Z,28.44
2019-06-07T14:38:43.524Z,30.11
2019-06-07T14:41:12.612Z,29.15
2019-06-07T14:43:41.983Z,29.93
2019-06-07T14:46:11.481Z,30.28
2019-06-07T14:48:40.602Z,31.90
2019-06-07T14:51:09.661Z,31.22
2019-06-07T14:53:38.726Z,31.58
2019-06-07T14:56:07.783Z,30.77
2019-06-07T14:58:42.750Z,30.99
2019-06-07T15:01:07.625Z,29.93
2019-06-07T15:03:36.836Z,30.24
2019-06-07T15:06:05.883Z,30.06
2019-06-07T15:08:35.059Z,32.10
2019-06-07T15:11:04.082Z,32.83
2019-06-07T15:13:33.637Z,31.30
2019-06-07T15:16:02.940Z,31.77
2019-06-07T15:18:31.996Z,32.34
2019-06-07T15:21:01.066Z,30.79
2019-06-07T15:23:31.113Z,31.65
2019-06-07T15:26:00.304Z,32.16
2019-06-07T15:28:30.187Z,32.80
2019-06-07T15:30:59.470Z,33.16
2019-06-07T15:33:29.640Z,32.73
2019-06-07T15:35:58.786Z,31.70
2019-06-07T15:38:28.968Z,33.93
2019-06-07T15:40:58.249Z,35.26
2019-06-07T15:43:27.297Z,33.29
2019-06-07T15:45:56.439Z,32.71
2019-06-07T15:48:25.527Z,33.96
2019-06-07T15:50:54.645Z,33.08
2019-06-07T15:53:23.780Z,33.06
2019-06-07T15:55:52.906Z,33.25
2019-06-07T15:58:21.975Z,35.61
2019-06-07T16:00:51.034Z,34.32
2019-06-07T16:03:20.157Z,33.74
2019-06-07T16:05:49.301Z,34.76
2019-06-07T16:08:18.353Z,33.30
2019-06-07T16:10:47.467Z,35.06
2019-06-07T16:13:16.565Z,33.69
2019-06-07T16:15:45.622Z,34.10
2019-06-07T16:18:14.774Z,34.20
2019-06-07T16:20:44.129Z,33.84
2019-06-07T16:23:13.234Z,34.75
2019-06-07T16:25:42.416Z,34.81
2019-06-07T16:28:11.598Z,35.08
2019-06-07T16:30:40.757Z,34.25
2019-06-07T16:33:09.827Z,35.56
2019-06-07T16:35:39.076Z,36.50
2019-06-07T16:38:08.284Z,35.74
2019-06-07T16:40:38.402Z,37.64
2019-06-07T16:43:16.616Z,36.40
2019-06-07T16:45:38.717Z,37.24
2019-06-07T16:48:07.796Z,36.66
2019-06-07T16:50:36.933Z,36.07
2019-06-07T16:53:06.151Z,37.92
2019-06-07T16:55:36.399Z,37.54
2019-06-07T16:58:05.642Z,37.77
2019-06-07T17:00:34.898Z,37.96
2019-06-07T17:03:04.470Z,38.92
2019-06-07T17:05:33.537Z,38.74
2019-06-07T17:08:02.680Z,39.90
2019-06-07T17:10:31.800Z,39.84
2019-06-07T17:13:00.900Z,39.85
2019-06-07T17:15:30.016Z,40.69
2019-06-07T17:17:59.054Z,41.90
2019-06-07T17:20:28.177Z,42.73
2019-06-07T17:22:57.319Z,44.36
2019-06-07T17:25:26.470Z,44.96
2019-06-07T17:27:55.564Z,43.45
2019-06-07T17:30:24.618Z,44.01
2019-06-07T17:32:58.976Z,43.78
2019-06-07T17:35:24.569Z,44.36
2019-06-07T17:37:53.638Z,45.55
2019-06-07T17:40:23.030Z,47.54
2019-06-07T17:42:52.077Z,50.20
2019-06-07T17:45:21.234Z,51.61
2019-06-07T17:47:51.956Z,51.84
2019-06-07T17:50:22.410Z,52.30
2019-06-07T17:52:52.096Z,51.45
2019-06-07T17:55:21.395Z,50.10
2019-06-07T17:57:50.929Z,50.43
2019-06-07T18:00:29.034Z,51.47
2019-06-07T18:02:52.963Z,52.69
2019-06-07T18:05:22.386Z,55.74
2019-06-07T18:07:53.876Z,55.62
2019-06-07T18:10:34.564Z,56.02
2019-06-07T18:13:03.621Z,57.95
2019-06-07T18:15:44.497Z,57.00
2019-06-07T18:18:13.845Z,57.38
2019-06-07T18:20:43.313Z,56.44
2019-06-07T18:23:12.938Z,58.08
2019-06-07T18:25:42.085Z,57.13
2019-06-07T18:28:11.641Z,58.58
2019-06-07T18:30:40.777Z,58.89
2019-06-07T18:33:09.885Z,60.08
2019-06-07T18:35:38.932Z,62.43
2019-06-07T18:38:10.739Z,62.43
2019-06-07T18:40:38.897Z,61.79
2019-06-07T18:43:07.950Z,63.90
2019-06-07T18:45:37.106Z,64.51
2019-06-07T18:48:06.842Z,65.06
2019-06-07T18:50:36.512Z,64.80
2019-06-07T18:53:05.743Z,64.25
2019-06-07T18:55:34.867Z,64.88
2019-06-07T18:58:04.443Z,65.31
2019-06-07T19:00:34.007Z,65.34
2019-06-07T19:03:03.447Z,65.74
2019-06-07T19:05:32.884Z,65.64
2019-06-07T19:08:02.076Z,65.64
2019-06-07T19:10:32.019Z,65.05
2019-06-07T19:13:01.367Z,66.27
2019-06-07T19:15:30.645Z,66.27
2019-06-07T19:18:00.978Z,65.82
2019-06-07T19:20:31.789Z,65.82
2019-06-07T19:23:01.219Z,66.71
2019-06-07T19:25:30.390Z,66.39
2019-06-07T19:28:01.102Z,67.57
2019-06-07T19:30:30.530Z,68.37
2019-06-07T19:33:01.572Z,68.37
2019-06-07T19:35:30.806Z,69.65
2019-06-07T19:38:00.103Z,69.30
2019-06-07T19:40:29.686Z,69.26
2019-06-07T19:42:59.269Z,69.08
2019-06-07T19:45:31.529Z,68.37
2019-06-07T19:48:01.017Z,67.93
2019-06-07T19:50:30.605Z,68.23
2019-06-07T19:53:01.189Z,70.20
2019-06-07T19:55:30.808Z,70.20
2019-06-07T19:57:59.994Z,69.04
2019-06-07T20:00:29.221Z,68.98
2019-06-07T20:02:59.963Z,70.20
2019-06-07T20:05:29.136Z,70.46
2019-06-07T20:07:58.541Z,70.85
2019-06-07T20:10:27.812Z,70.85
2019-06-07T20:12:58.559Z,71.03
2019-06-07T20:15:29.599Z,71.91
2019-06-07T20:17:59.321Z,72.82
2019-06-07T20:20:30.092Z,72.82
2019-06-07T20:23:00.958Z,73.65
2019-06-07T20:25:30.460Z,73.80
2019-06-07T20:28:01.384Z,73.80
2019-06-07T20:30:30.954Z,74.03
2019-06-07T20:33:01.738Z,75.68
2019-06-07T20:35:31.389Z,76.11
2019-06-07T20:38:01.087Z,76.11
2019-06-07T20:40:30.679Z,77.25
2019-06-07T20:43:01.433Z,77.58
2019-06-07T20:45:33.912Z,77.58
2019-06-07T20:48:02.179Z,78.74
2019-06-07T20:50:31.491Z,78.74
2019-06-07T20:53:01.709Z,79.39
2019-06-07T20:55:32.095Z,79.73
2019-06-07T20:58:03.583Z,79.23
2019-06-07T21:00:32.619Z,79.14
2019-06-07T21:03:03.248Z,79.11
2019-06-07T21:05:32.734Z,79.88
2019-06-07T21:08:03.757Z,79.47
2019-06-07T21:10:33.349Z,80.72
2019-06-07T21:13:03.886Z,79.91
2019-06-07T21:15:47.923Z,80.44
2019-06-07T21:18:09.616Z,80.01
2019-06-07T21:20:35.870Z,80.22
2019-06-07T21:23:05.267Z,80.22
2019-06-07T21:25:34.686Z,79.96
2019-06-07T21:28:05.177Z,79.40
2019-06-07T21:30:34.706Z,80.05
2019-06-07T21:33:05.447Z,79.96
2019-06-07T21:35:34.857Z,79.96
2019-06-07T21:38:05.971Z,79.31
2019-06-07T21:40:35.457Z,78.96
2019-06-07T21:43:06.254Z,78.96
2019-06-07T21:45:35.826Z,79.20
2019-06-07T21:48:07.030Z,77.30
2019-06-07T21:50:36.407Z,77.30
2019-06-07T21:53:06.571Z,77.80
2019-06-07T21:55:36.205Z,77.90
2019-06-07T21:58:06.956Z,78.02
2019-06-07T22:00:43.703Z,77.61
2019-06-07T22:03:13.547Z,77.61
2019-06-07T22:05:43.108Z,78.32
2019-06-07T22:08:12.569Z,77.82
2019-06-07T22:10:41.926Z,77.94
2019-06-07T22:13:12.179Z,77.95
2019-06-07T22:15:41.728Z,77.95
2019-06-07T22:18:12.866Z,78.52
2019-06-07T22:20:42.370Z,78.96
2019-06-07T22:23:12.739Z,78.97
2019-06-07T22:25:42.180Z,79.24
2019-06-07T22:28:12.807Z,79.40
2019-06-07T22:30:42.352Z,79.40
2019-06-07T22:33:13.377Z,79.36
2019-06-07T22:35:43.017Z,79.92
2019-06-07T22:38:12.370Z,79.67
2019-06-07T22:40:41.795Z,79.55
2019-06-07T22:43:11.824Z,79.37
2019-06-07T22:45:41.344Z,78.42
2019-06-07T22:48:11.372Z,78.70
2019-06-07T22:50:40.886Z,79.16
2019-06-07T22:53:11.358Z,79.99
2019-06-07T22:55:42.436Z,79.63
2019-06-07T22:58:12.108Z,78.76
2019-06-07T23:00:41.594Z,78.23
2019-06-07T23:03:12.565Z,78.04
2019-06-07T23:05:42.101Z,78.52
2019-06-07T23:08:12.956Z,78.52
2019-06-07T23:10:42.548Z,77.28
2019-06-07T23:13:11.964Z,78.62
2019-06-07T23:15:41.382Z,78.62
2019-06-07T23:18:11.405Z,77.04
2019-06-07T23:20:40.934Z,77.52
2019-06-07T23:23:10.352Z,77.52
2019-06-07T23:25:39.721Z,77.49
2019-06-07T23:28:10.198Z,78.04
2019-06-07T23:30:39.762Z,77.42
2019-06-07T23:33:09.251Z,77.42
2019-06-07T23:35:39.786Z,77.01
2019-06-07T23:38:09.201Z,77.16
2019-06-07T23:40:38.630Z,77.16
2019-06-07T23:43:07.976Z,77.56
2019-06-07T23:45:37.362Z,77.73
2019-06-07T23:48:06.775Z,77.73
2019-06-07T23:50:36.190Z,78.49
2019-06-07T23:53:07.371Z,78.49
2019-06-07T23:55:36.769Z,77.46
2019-06-07T23:58:06.180Z,75.98
